createdAt,value
2019-05-13T00:05:13.000Z,21.84
2019-05-13T00:15:13.000Z,21.75
2019-05-13T00:25:17.000Z,21.73
2019-05-13T00:35:14.000Z,21.67
2019-05-13T00:45:14.000Z,21.6
2019-05-13T00:55:14.000Z,21.59
2019-05-13T01:05:14.000Z,21.53
2019-05-13T01:15:14.000Z,21.51
2019-05-13T01:25:14.000Z,21.43
2019-05-13T01:35:15.000Z,21.41
2019-05-13T01:45:14.000Z,21.34
2019-05-13T01:55:14.000Z,21.28
2019-05-13T02:15:14.000Z,21.14
2019-05-13T02:25:15.000Z,21.11
2019-05-13T02:35:15.000Z,21.02
2019-05-13T02:45:14.000Z,20.97
2019-05-13T02:55:14.000Z,20.93
2019-05-13T03:05:14.000Z,20.92
2019-05-13T03:15:14.000Z,20.88
2019-05-13T03:25:14.000Z,20.81
2019-05-13T03:35:14.000Z,20.76
2019-05-13T03:45:14.000Z,20.72
2019-05-13T03:55:15.000Z,20.67
2019-05-13T04:05:14.000Z,20.61
2019-05-13T04:15:14.000Z,20.56
2019-05-13T04:25:14.000Z,20.52
2019-05-13T04:35:14.000Z,20.48
2019-05-13T04:45:14.000Z,20.47
2019-05-13T04:55:16.000Z,20.47
2019-05-13T05:05:14.000Z,20.46
2019-05-13T05:15:14.000Z,20.42
2019-05-13T05:25:15.000Z,20.47
2019-05-13T05:35:14.000Z,20.48
2019-05-13T05:45:14.000Z,20.48
2019-05-13T05:55:15.000Z,20.55
2019-05-13T06:05:14.000Z,20.56
2019-05-13T06:15:14.000Z,20.56
2019-05-13T06:25:14.000Z,20.69
2019-05-13T06:35:16.000Z,20.77
2019-05-13T06:45:16.000Z,20.82
2019-05-13T06:55:14.000Z,20.8
2019-05-13T07:05:15.000Z,20.82
2019-05-13T07:15:14.000Z,20.85
2019-05-13T07:25:14.000Z,20.88
2019-05-13T07:35:14.000Z,20.92
2019-05-13T07:45:18.000Z,20.97
2019-05-13T07:55:15.000Z,21.07
2019-05-13T08:05:14.000Z,21.16
2019-05-13T08:15:14.000Z,21.23
2019-05-13T08:25:14.000Z,21.32
2019-05-13T08:35:14.000Z,21.38
2019-05-13T08:45:16.000Z,21.44
2019-05-13T08:55:15.000Z,21.52
2019-05-13T09:05:15.000Z,21.58
2019-05-13T09:15:15.000Z,21.66
2019-05-13T09:25:15.000Z,21.67
2019-05-13T09:35:15.000Z,21.71
2019-05-13T09:45:15.000Z,21.82
2019-05-13T09:55:15.000Z,21.82
2019-05-13T10:05:15.000Z,21.88
2019-05-13T10:15:15.000Z,21.93
2019-05-13T10:25:16.000Z,21.98
2019-05-13T10:35:18.000Z,22.05
2019-05-13T10:45:15.000Z,22.2
2019-05-13T10:55:15.000Z,22.25
2019-05-13T11:05:15.000Z,22.38
2019-05-13T11:15:15.000Z,22.46
2019-05-13T11:25:16.000Z,22.56
2019-05-13T11:35:15.000Z,22.62
2019-05-13T11:45:18.000Z,22.62
2019-05-13T11:55:15.000Z,22.58
2019-05-13T12:05:15.000Z,22.52
2019-05-13T12:15:15.000Z,22.53
2019-05-13T12:25:15.000Z,22.55
2019-05-13T12:35:15.000Z,22.54
2019-05-13T12:45:15.000Z,22.53
2019-05-13T12:55:15.000Z,22.51
2019-05-13T13:05:15.000Z,22.48
2019-05-13T13:15:15.000Z,22.47
2019-05-13T13:25:15.000Z,22.45
2019-05-13T13:35:15.000Z,22.4
2019-05-13T13:45:15.000Z,22.33
2019-05-13T13:55:15.000Z,22.31
2019-05-13T14:05:15.000Z,22.27
2019-05-13T14:15:15.000Z,22.25
2019-05-13T14:25:15.000Z,22.27
2019-05-13T14:35:15.000Z,22.22
2019-05-13T14:45:15.000Z,22.29
2019-05-13T14:55:15.000Z,22.37
2019-05-13T15:15:17.000Z,22.32
2019-05-13T15:25:16.000Z,22.3
2019-05-13T15:55:15.000Z,22.2
2019-05-13T16:05:15.000Z,22.16
2019-05-13T16:25:15.000Z,22.15
2019-05-13T16:35:17.000Z,22.15
2019-05-13T16:45:15.000Z,22.14
2019-05-13T16:55:15.000Z,22.16
2019-05-13T17:05:16.000Z,22.17
2019-05-13T17:15:16.000Z,22.17
2019-05-13T17:25:16.000Z,22.16
2019-05-13T17:35:17.000Z,22.16
2019-05-13T17:45:18.000Z,22.14
2019-05-13T17:55:16.000Z,22.14
2019-05-13T18:05:16.000Z,22.1
2019-05-13T18:15:16.000Z,22.11
2019-05-13T18:25:16.000Z,22.03
2019-05-13T18:45:17.000Z,22.02
2019-05-13T18:55:16.000Z,22
2019-05-13T19:05:16.000Z,22.01
2019-05-13T19:15:16.000Z,21.95
2019-05-13T19:25:16.000Z,21.93
2019-05-13T19:35:18.000Z,21.89
2019-05-13T19:45:16.000Z,21.86
2019-05-13T19:55:16.000Z,21.84
2019-05-13T20:05:16.000Z,21.86
2019-05-13T20:15:16.000Z,21.93
2019-05-13T20:25:16.000Z,21.87
2019-05-13T20:35:16.000Z,21.85
2019-05-13T20:45:17.000Z,21.8
2019-05-13T20:55:18.000Z,21.75
2019-05-13T21:05:16.000Z,21.71
2019-05-13T21:25:16.000Z,21.62
2019-05-13T21:35:16.000Z,21.55
2019-05-13T21:45:17.000Z,21.53
2019-05-13T21:55:16.000Z,21.46
2019-05-13T22:05:16.000Z,21.39
2019-05-13T22:15:16.000Z,21.38
2019-05-13T22:25:16.000Z,21.32
2019-05-13T22:35:16.000Z,21.25
2019-05-13T22:45:17.000Z,21.19
2019-05-13T22:55:16.000Z,21.15
2019-05-13T23:05:17.000Z,21.1
2019-05-13T23:15:16.000Z,21.07
2019-05-13T23:25:18.000Z,21.01
2019-05-13T23:35:16.000Z,20.97
2019-05-13T23:45:16.000Z,20.94
2019-05-13T23:55:16.000Z,20.91
